Time;durP1;ratioP1;P1;durP2;ratioP2;P2;SDS_P1;SDS_P2;PMS_P1;PMS_P2;Temp;Humidity;BMP_temperature;BMP_pressure;BME280_temperature;BME280_humidity;BME280_pressure;Samples;Min_cycle;Max_cycle;Signal;HPM_P1;HPM_P2
2021/06/24 00:02:03;;;;;;;14.82;3.35;;;23.20;69.90;;;;;;5120158;28;20340;-72
2021/06/24 00:04:30;;;;;;;16.90;3.72;;;23.20;70.20;;;;;;5120469;28;20019;-73
2021/06/24 00:06:56;;;;;;;24.98;4.30;;;23.30;70.00;;;;;;5119955;28;20106;-72
2021/06/24 00:09:21;;;;;;;14.35;3.05;;;23.30;69.80;;;;;;5120343;28;20070;-72
2021/06/24 00:11:47;;;;;;;24.88;4.97;;;23.20;69.90;;;;;;5120271;28;20038;-73
2021/06/24 00:14:13;;;;;;;14.13;3.60;;;23.20;70.40;;;;;;5120331;28;20465;-72
2021/06/24 00:16:38;;;;;;;20.80;3.40;;;23.20;70.90;;;;;;5119805;28;20077;-72
2021/06/24 00:19:04;;;;;;;14.32;3.30;;;23.10;71.10;;;;;;5120076;28;20019;-72
2021/06/24 00:21:30;;;;;;;19.27;3.88;;;23.10;71.40;;;;;;5120120;28;20027;-72
2021/06/24 00:23:56;;;;;;;22.05;5.43;;;23.10;71.70;;;;;;5119810;28;20373;-72
2021/06/24 00:26:22;;;;;;;22.17;3.88;;;23.00;71.90;;;;;;5119082;28;20047;-72
2021/06/24 00:28:47;;;;;;;13.45;3.35;;;22.90;71.80;;;;;;5119489;28;20024;-72
2021/06/24 00:31:13;;;;;;;19.23;3.40;;;22.90;72.00;;;;;;5119929;28;20032;-72
2021/06/24 00:33:40;;;;;;;17.25;3.50;;;22.80;71.90;;;;;;5119841;28;20342;-72
2021/06/24 00:36:06;;;;;;;13.05;3.92;;;22.80;72.00;;;;;;5119003;28;20073;-72
2021/06/24 00:38:31;;;;;;;20.20;4.18;;;22.90;72.10;;;;;;5119493;28;20023;-72
2021/06/24 00:40:59;;;;;;;24.17;4.05;;;22.90;72.00;;;;;;5119319;28;20052;-72
2021/06/24 00:43:26;;;;;;;24.13;3.53;;;22.90;71.70;;;;;;5119488;28;20026;-72
2021/06/24 00:45:52;;;;;;;19.92;4.18;;;22.90;71.30;;;;;;5119656;28;20039;-72
2021/06/24 00:48:18;;;;;;;15.93;4.13;;;23.00;71.20;;;;;;5119636;28;20395;-73
2021/06/24 00:50:46;;;;;;;20.90;3.80;;;23.00;70.80;;;;;;5119591;28;20345;-73
2021/06/24 00:53:12;;;;;;;19.48;3.95;;;23.00;70.90;;;;;;5119188;28;20028;-72
2021/06/24 00:55:45;;;;;;;18.27;3.38;;;23.10;70.40;;;;;;5119149;28;20024;-73
2021/06/24 00:58:16;;;;;;;17.75;4.32;;;23.10;70.30;;;;;;5119465;28;20035;-73
2021/06/24 01:00:44;;;;;;;21.13;3.20;;;23.10;70.40;;;;;;5119283;28;20031;-73
2021/06/24 01:03:11;;;;;;;15.23;4.20;;;23.10;70.00;;;;;;5118994;28;20027;-73
2021/06/24 01:05:38;;;;;;;19.40;3.78;;;23.10;69.90;;;;;;5119070;28;20024;-73
2021/06/24 01:08:08;;;;;;;19.98;4.38;;;23.10;69.60;;;;;;5118908;28;20031;-73
2021/06/24 01:10:35;;;;;;;17.95;3.55;;;23.10;69.50;;;;;;5119177;28;20020;-73
2021/06/24 01:13:01;;;;;;;16.77;3.33;;;23.10;69.20;;;;;;5119088;28;20394;-73
2021/06/24 01:15:27;;;;;;;15.35;3.20;;;23.10;69.30;;;;;;5118797;28;20031;-73
2021/06/24 01:17:55;;;;;;;15.45;4.20;;;23.20;68.90;;;;;;5119005;28;20053;-73
2021/06/24 01:20:26;;;;;;;11.27;3.05;;;23.20;68.50;;;;;;5118869;28;20020;-73
2021/06/24 01:22:52;;;;;;;18.63;4.50;;;23.30;68.50;;;;;;5118593;28;20020;-73
2021/06/24 01:25:20;;;;;;;20.35;3.55;;;23.30;68.60;;;;;;5118847;28;20020;-73
2021/06/24 01:27:46;;;;;;;12.20;3.78;;;23.30;68.30;;;;;;5118831;28;20023;-73
2021/06/24 01:30:13;;;;;;;21.75;3.65;;;23.30;68.40;;;;;;5118506;28;20019;-73
2021/06/24 01:32:40;;;;;;;12.25;3.10;;;23.30;68.10;;;;;;5118705;28;20102;-73
2021/06/24 01:35:06;;;;;;;12.82;3.60;;;23.40;68.70;;;;;;5118419;28;20039;-73
2021/06/24 01:37:32;;;;;;;13.18;3.08;;;23.30;69.00;;;;;;5118279;28;20031;-73
2021/06/24 01:39:57;;;;;;;13.63;3.30;;;23.20;69.30;;;;;;5117486;28;20039;-73
2021/06/24 01:42:27;;;;;;;17.80;3.33;;;23.20;69.00;;;;;;5118539;28;20047;-73
2021/06/24 01:44:53;;;;;;;14.63;3.78;;;23.10;69.30;;;;;;5118435;28;20057;-72
2021/06/24 01:47:19;;;;;;;15.05;3.05;;;23.10;69.70;;;;;;5118146;28;20024;-73
2021/06/24 01:49:44;;;;;;;14.73;3.47;;;23.10;69.50;;;;;;5118383;28;20031;-73
2021/06/24 01:52:10;;;;;;;13.38;3.30;;;23.10;69.10;;;;;;5118351;28;20059;-73
2021/06/24 01:54:36;;;;;;;27.95;3.15;;;23.10;69.00;;;;;;5118079;28;20315;-73
2021/06/24 01:57:02;;;;;;;26.65;3.22;;;23.20;68.70;;;;;;5118181;28;20028;-73
2021/06/24 01:59:28;;;;;;;13.18;2.75;;;23.20;68.70;;;;;;5117828;28;20112;-73
2021/06/24 02:01:54;;;;;;;15.20;3.08;;;23.20;68.70;;;;;;5118119;28;20020;-73
2021/06/24 02:04:26;;;;;;;21.27;3.08;;;23.20;68.20;;;;;;5118197;28;20312;-73
2021/06/24 02:06:52;;;;;;;12.48;2.97;;;23.20;68.20;;;;;;5118072;28;20042;-73
2021/06/24 02:09:17;;;;;;;12.85;3.13;;;23.20;68.20;;;;;;5118024;28;20020;-73
2021/06/24 02:11:43;;;;;;;19.08;3.03;;;23.10;68.20;;;;;;5118030;28;20019;-73
2021/06/24 02:14:09;;;;;;;15.20;2.97;;;23.20;67.90;;;;;;5117679;28;20077;-73
2021/06/24 02:16:34;;;;;;;14.77;2.75;;;23.20;67.80;;;;;;5117822;28;20036;-73
2021/06/24 02:19:00;;;;;;;19.65;3.00;;;23.20;67.90;;;;;;5117883;28;20046;-73
2021/06/24 02:21:26;;;;;;;10.38;3.05;;;23.20;68.20;;;;;;5117483;28;20112;-73
2021/06/24 02:23:51;;;;;;;15.80;3.28;;;23.20;67.70;;;;;;5117540;28;20031;-73
2021/06/24 02:26:17;;;;;;;20.52;3.05;;;23.20;68.30;;;;;;5117409;28;20049;-73
2021/06/24 02:28:43;;;;;;;12.55;3.00;;;23.20;68.60;;;;;;5117750;28;20047;-73
2021/06/24 02:31:08;;;;;;;14.95;3.33;;;23.10;68.70;;;;;;5117739;28;20058;-73
2021/06/24 02:33:34;;;;;;;20.35;4.05;;;23.00;68.80;;;;;;5117369;28;20027;-73
2021/06/24 02:36:00;;;;;;;14.57;3.22;;;22.90;68.90;;;;;;5117166;28;20047;-73
2021/06/24 02:38:26;;;;;;;11.82;3.22;;;22.90;69.00;;;;;;5117626;28;20047;-73
2021/06/24 02:40:52;;;;;;;18.88;3.75;;;22.90;69.40;;;;;;5117548;28;20110;-73
2021/06/24 02:43:18;;;;;;;16.30;3.42;;;22.90;69.50;;;;;;5117358;28;20396;-73
2021/06/24 02:45:44;;;;;;;11.05;3.13;;;22.80;69.60;;;;;;5117225;28;20130;-73
2021/06/24 02:48:10;;;;;;;15.88;3.50;;;22.80;69.70;;;;;;5117540;28;20047;-73
2021/06/24 02:50:36;;;;;;;18.50;3.88;;;22.70;69.80;;;;;;5116804;28;20104;-73
2021/06/24 02:53:02;;;;;;;12.00;4.03;;;22.60;70.00;;;;;;5117450;28;20296;-73
2021/06/24 02:55:30;;;;;;;13.43;3.00;;;22.50;70.00;;;;;;5117432;28;20077;-73
2021/06/24 02:57:58;;;;;;;11.68;2.45;;;22.50;70.20;;;;;;5117366;28;20034;-73
2021/06/24 03:00:24;;;;;;;14.45;3.10;;;22.50;70.50;;;;;;5117033;28;20024;-73
2021/06/24 03:02:49;;;;;;;12.23;3.10;;;22.60;70.80;;;;;;5117379;28;20103;-73
2021/06/24 03:05:15;;;;;;;12.80;2.63;;;22.60;70.80;;;;;;5117307;28;20399;-73
2021/06/24 03:07:41;;;;;;;10.68;3.13;;;22.50;71.00;;;;;;5117326;28;20027;-73
2021/06/24 03:10:08;;;;;;;11.40;2.95;;;22.50;71.60;;;;;;5117312;28;20027;-73
2021/06/24 03:12:34;;;;;;;12.90;3.25;;;22.40;72.10;;;;;;5116849;28;20028;-73
2021/06/24 03:15:00;;;;;;;13.05;2.70;;;22.30;71.90;;;;;;5116928;28;20084;-73
2021/06/24 03:17:26;;;;;;;20.27;3.72;;;22.30;72.20;;;;;;5117196;28;20032;-73
2021/06/24 03:19:52;;;;;;;17.20;3.45;;;22.20;72.80;;;;;;5099077;28;20362;-73
2021/06/24 03:22:17;;;;;;;15.90;3.70;;;22.10;73.60;;;;;;5116873;28;20429;-73
2021/06/24 03:24:43;;;;;;;10.63;3.17;;;22.10;73.90;;;;;;5117152;28;20024;-73
2021/06/24 03:27:09;;;;;;;21.48;3.53;;;22.10;73.70;;;;;;5117065;28;20428;-73
2021/06/24 03:29:35;;;;;;;27.48;3.83;;;22.20;73.40;;;;;;5117142;28;20100;-73
2021/06/24 03:32:01;;;;;;;13.35;2.90;;;22.20;73.50;;;;;;5117096;28;20081;-73
2021/06/24 03:34:27;;;;;;;13.18;3.55;;;22.10;73.70;;;;;;5116808;28;20427;-73
2021/06/24 03:36:52;;;;;;;15.88;4.35;;;22.10;73.90;;;;;;5116980;28;20035;-73
2021/06/24 03:39:18;;;;;;;10.75;3.13;;;22.10;73.60;;;;;;5098613;28;20024;-73
2021/06/24 03:41:44;;;;;;;11.70;3.22;;;22.10;73.10;;;;;;5116993;28;20024;-73
2021/06/24 03:44:10;;;;;;;11.98;3.10;;;22.10;73.50;;;;;;5117055;28;20034;-73
2021/06/24 03:46:36;;;;;;;12.43;3.10;;;22.10;74.00;;;;;;5116588;28;20047;-73
2021/06/24 03:49:01;;;;;;;16.02;4.03;;;22.00;74.40;;;;;;5116599;28;20023;-73
2021/06/24 03:51:27;;;;;;;14.63;3.38;;;22.00;74.40;;;;;;5116918;28;20032;-73
2021/06/24 03:53:53;;;;;;;20.13;3.40;;;21.90;72.20;;;;;;5116911;28;20028;-73
2021/06/24 03:56:18;;;;;;;22.65;3.42;;;22.00;71.90;;;;;;5116782;28;20024;-73
2021/06/24 03:58:44;;;;;;;20.52;4.00;;;22.20;71.10;;;;;;5116789;28;20301;-73
2021/06/24 04:01:10;;;;;;;13.43;3.30;;;22.30;71.40;;;;;;5116771;28;20031;-73
2021/06/24 04:03:35;;;;;;;12.57;2.55;;;22.40;70.50;;;;;;5119768;28;20027;-73
2021/06/24 04:06:01;;;;;;;17.02;3.08;;;22.40;70.60;;;;;;5120416;28;20065;-73
2021/06/24 04:08:27;;;;;;;15.70;3.45;;;22.40;70.70;;;;;;5120448;28;20020;-72
2021/06/24 04:10:53;;;;;;;11.40;3.13;;;22.50;70.50;;;;;;5120070;28;20024;-73
2021/06/24 04:13:18;;;;;;;14.38;2.60;;;22.50;70.70;;;;;;5120331;28;20065;-73
2021/06/24 04:15:44;;;;;;;15.45;3.63;;;22.50;70.30;;;;;;5120239;28;20034;-73
2021/06/24 04:18:10;;;;;;;19.75;3.10;;;22.50;70.30;;;;;;5120263;28;20042;-73
2021/06/24 04:20:36;;;;;;;14.27;3.22;;;22.50;70.40;;;;;;5101755;28;20034;-73
2021/06/24 04:23:03;;;;;;;18.70;4.07;;;22.50;70.50;;;;;;5119808;28;20076;-72
2021/06/24 04:25:29;;;;;;;15.00;3.20;;;22.50;70.30;;;;;;5120106;28;20016;-72
2021/06/24 04:27:55;;;;;;;16.08;2.70;;;22.50;70.20;;;;;;5120049;28;20103;-73
2021/06/24 04:30:22;;;;;;;13.52;3.30;;;22.50;69.90;;;;;;5119766;28;20424;-72
2021/06/24 04:32:49;;;;;;;16.88;3.75;;;22.60;69.90;;;;;;5119928;28;20316;-73
2021/06/24 04:35:15;;;;;;;12.07;3.10;;;22.70;70.40;;;;;;5119433;28;20036;-73
2021/06/24 04:37:41;;;;;;;18.00;3.70;;;22.80;69.90;;;;;;5119865;28;20076;-73
2021/06/24 04:40:09;;;;;;;14.95;4.30;;;22.90;69.90;;;;;;5119764;28;20331;-73
2021/06/24 04:42:36;;;;;;;15.95;3.70;;;23.00;69.10;;;;;;5101317;28;20031;-72
2021/06/24 04:45:03;;;;;;;16.00;2.88;;;23.10;68.90;;;;;;5119702;28;20023;-72
2021/06/24 04:47:29;;;;;;;8.40;2.75;;;23.20;68.30;;;;;;5119691;28;20023;-72
2021/06/24 04:49:54;;;;;;;16.15;4.20;;;23.20;68.70;;;;;;5119599;28;20069;-72
2021/06/24 04:52:20;;;;;;;6.68;2.35;;;23.30;68.20;;;;;;5119259;28;20043;-72
2021/06/24 04:54:46;;;;;;;22.15;3.80;;;23.40;67.90;;;;;;5119636;28;20052;-72
2021/06/24 04:57:12;;;;;;;15.02;2.72;;;23.40;67.80;;;;;;5119432;28;20140;-72
2021/06/24 04:59:38;;;;;;;10.68;3.22;;;23.40;67.70;;;;;;5119382;28;20019;-72
2021/06/24 05:02:04;;;;;;;17.48;3.53;;;23.50;67.60;;;;;;5119114;28;20077;-72
2021/06/24 05:04:29;;;;;;;12.95;3.10;;;23.50;67.90;;;;;;5119384;28;20024;-72
2021/06/24 05:07:00;;;;;;;11.52;2.70;;;23.40;68.20;;;;;;5118954;28;20379;-72
2021/06/24 05:09:28;;;;;;;16.20;3.38;;;23.30;68.70;;;;;;5119304;28;20028;-72
2021/06/24 05:11:53;;;;;;;13.73;2.88;;;23.30;68.70;;;;;;5119184;28;20036;-72
2021/06/24 05:14:19;;;;;;;19.63;3.13;;;23.30;69.20;;;;;;5119020;28;20027;-72
2021/06/24 05:16:45;;;;;;;17.48;3.25;;;23.20;68.80;;;;;;5118724;28;20031;-72
2021/06/24 05:19:11;;;;;;;19.67;4.38;;;23.30;68.80;;;;;;5118978;28;20027;-72
2021/06/24 05:21:38;;;;;;;15.63;2.70;;;23.40;68.80;;;;;;5119185;28;20469;-72
2021/06/24 05:24:04;;;;;;;14.82;3.05;;;23.50;68.40;;;;;;5118640;28;20320;-72
2021/06/24 05:26:30;;;;;;;13.38;2.90;;;23.60;68.10;;;;;;5118884;28;20024;-72
2021/06/24 05:28:55;;;;;;;12.95;2.90;;;23.70;68.00;;;;;;5118531;28;20084;-72
2021/06/24 05:31:21;;;;;;;13.73;3.30;;;23.70;67.30;;;;;;5118819;28;20058;-72
2021/06/24 05:33:47;;;;;;;14.50;3.75;;;23.70;67.40;;;;;;5118477;28;20297;-72
2021/06/24 05:36:12;;;;;;;16.33;4.18;;;23.70;67.70;;;;;;5118210;28;20101;-72
2021/06/24 05:38:38;;;;;;;13.75;3.17;;;23.80;68.00;;;;;;5118384;28;20119;-72
2021/06/24 05:41:04;;;;;;;19.90;3.40;;;23.90;68.00;;;;;;5118223;28;20042;-72
2021/06/24 05:43:29;;;;;;;12.23;2.95;;;24.00;68.70;;;;;;5118410;28;20059;-72
2021/06/24 05:45:55;;;;;;;11.57;3.40;;;24.00;68.90;;;;;;5118514;28;20019;-73
2021/06/24 05:48:21;;;;;;;18.05;3.50;;;24.00;70.60;;;;;;5118457;28;20020;-73
2021/06/24 05:50:46;;;;;;;11.50;3.03;;;24.00;68.90;;;;;;5118419;28;20404;-73
2021/06/24 05:53:12;;;;;;;15.38;3.33;;;24.10;69.30;;;;;;5118343;28;20088;-73
2021/06/24 05:55:47;;;;;;;15.75;3.67;;;24.20;72.00;;;;;;5118332;28;20356;-73
2021/06/24 05:58:15;;;;;;;14.93;3.55;;;24.40;73.00;;;;;;5117998;28;20051;-73
2021/06/24 06:00:41;;;;;;;17.95;3.75;;;24.70;73.50;;;;;;5118198;28;20066;-73
2021/06/24 06:03:07;;;;;;;19.92;3.60;;;24.90;73.70;;;;;;5117886;28;20055;-73
2021/06/24 06:05:33;;;;;;;15.88;3.50;;;25.20;72.20;;;;;;5117807;28;20020;-73
2021/06/24 06:08:00;;;;;;;16.02;3.85;;;25.50;71.40;;;;;;5118112;28;20031;-73
2021/06/24 06:10:26;;;;;;;16.20;3.97;;;25.80;68.70;;;;;;5117749;28;20416;-73
2021/06/24 06:12:52;;;;;;;17.08;3.70;;;26.00;69.20;;;;;;5117601;28;20039;-73
2021/06/24 06:15:18;;;;;;;17.15;4.00;;;26.40;68.90;;;;;;5117957;28;20024;-73
2021/06/24 06:17:44;;;;;;;17.75;4.95;;;26.70;69.30;;;;;;5099709;28;20028;-73
2021/06/24 06:20:10;;;;;;;12.85;4.50;;;27.20;69.40;;;;;;5117583;28;20027;-73
2021/06/24 06:22:36;;;;;;;18.10;4.40;;;27.90;68.30;;;;;;5117551;28;20024;-73
2021/06/24 06:25:03;;;;;;;19.70;5.38;;;28.50;67.00;;;;;;5117182;28;20028;-73
2021/06/24 06:27:28;;;;;;;14.00;3.45;;;28.80;65.20;;;;;;5117777;28;20098;-73
2021/06/24 06:29:54;;;;;;;18.35;4.13;;;28.70;65.40;;;;;;5117446;28;20486;-73
2021/06/24 06:32:21;;;;;;;15.45;4.38;;;28.70;64.30;;;;;;5117696;28;20022;-73
2021/06/24 06:34:47;;;;;;;13.75;3.90;;;28.50;65.40;;;;;;5117519;28;20074;-73
2021/06/24 06:37:13;;;;;;;21.27;3.88;;;28.70;64.70;;;;;;5117306;28;20431;-73
2021/06/24 06:39:38;;;;;;;17.67;4.03;;;28.80;64.40;;;;;;5117246;28;20042;-73
2021/06/24 06:42:04;;;;;;;22.10;4.75;;;28.80;65.10;;;;;;5117614;28;20019;-73
2021/06/24 06:44:30;;;;;;;22.45;4.60;;;29.30;62.60;;;;;;5117710;28;20467;-73
2021/06/24 06:46:56;;;;;;;15.48;4.30;;;29.80;63.00;;;;;;5117504;28;20019;-73
2021/06/24 06:49:21;;;;;;;17.58;4.68;;;30.10;62.30;;;;;;5117454;28;20411;-73
2021/06/24 06:51:47;;;;;;;16.05;3.75;;;30.50;62.10;;;;;;5117478;28;20027;-73
2021/06/24 06:54:12;;;;;;;19.83;4.63;;;30.90;62.20;;;;;;5117483;28;20418;-73
2021/06/24 06:56:38;;;;;;;13.65;3.85;;;31.20;59.70;;;;;;5117383;28;20054;-73
2021/06/24 06:59:07;;;;;;;14.82;4.00;;;31.30;58.80;;;;;;5117381;28;20076;-73
2021/06/24 07:01:33;;;;;;;21.85;4.57;;;31.30;60.20;;;;;;5117268;28;20030;-73
2021/06/24 07:03:58;;;;;;;18.38;4.38;;;31.40;59.00;;;;;;5117422;28;20019;-73
2021/06/24 07:06:26;;;;;;;19.25;4.28;;;31.50;59.70;;;;;;5117291;28;20024;-73
2021/06/24 07:08:52;;;;;;;23.02;4.38;;;31.70;59.40;;;;;;5116969;28;20028;-73
2021/06/24 07:11:18;;;;;;;15.75;3.83;;;31.80;58.60;;;;;;5117284;28;20024;-73
2021/06/24 07:13:43;;;;;;;20.30;4.15;;;31.80;59.10;;;;;;5117342;28;20439;-74
2021/06/24 07:16:09;;;;;;;14.60;3.72;;;32.00;58.20;;;;;;5116858;28;20411;-72
2021/06/24 07:18:35;;;;;;;17.25;4.20;;;31.90;58.30;;;;;;5117206;28;20052;-73
2021/06/24 07:21:00;;;;;;;12.60;3.85;;;32.10;58.60;;;;;;5116842;28;20111;-74
2021/06/24 07:23:26;;;;;;;15.90;3.97;;;32.10;57.30;;;;;;5098828;28;20027;-73
2021/06/24 07:25:52;;;;;;;12.75;4.70;;;32.20;57.50;;;;;;5117126;28;20027;-74
2021/06/24 07:28:17;;;;;;;15.23;3.63;;;32.20;57.10;;;;;;5117116;28;20035;-73
2021/06/24 07:30:43;;;;;;;15.23;3.63;;;32.10;58.10;;;;;;5117110;28;20149;-73
2021/06/24 07:33:09;;;;;;;23.58;3.95;;;32.30;58.50;;;;;;5117093;28;20035;-73
2021/06/24 07:35:35;;;;;;;10.55;3.58;;;32.30;58.10;;;;;;5116928;28;20064;-74
2021/06/24 07:38:01;;;;;;;15.93;3.50;;;32.50;58.20;;;;;;5120719;28;20419;-74
2021/06/24 07:40:26;;;;;;;15.68;3.58;;;32.70;57.70;;;;;;5120919;28;20039;-74
2021/06/24 07:42:52;;;;;;;16.60;4.72;;;32.60;57.80;;;;;;5120795;28;20099;-74
2021/06/24 07:45:18;;;;;;;18.65;3.83;;;32.50;57.80;;;;;;5120920;28;20059;-74
2021/06/24 07:47:44;;;;;;;20.10;3.53;;;32.50;57.60;;;;;;5120874;28;20024;-74
2021/06/24 07:50:10;;;;;;;20.60;4.22;;;32.60;57.00;;;;;;5120514;28;20124;-74
2021/06/24 07:52:35;;;;;;;21.20;3.78;;;32.90;55.60;;;;;;5120430;28;20020;-74
2021/06/24 07:55:02;;;;;;;16.42;4.22;;;32.90;55.50;;;;;;5120698;28;20031;-74
2021/06/24 07:57:29;;;;;;;14.90;3.75;;;32.20;57.50;;;;;;5120272;28;20051;-74
2021/06/24 07:59:55;;;;;;;15.45;4.43;;;31.90;60.00;;;;;;5120546;28;20371;-73
2021/06/24 08:02:21;;;;;;;12.13;3.25;;;32.00;58.90;;;;;;5120500;28;20019;-74
2021/06/24 08:04:47;;;;;;;13.63;3.28;;;31.80;57.50;;;;;;5120583;28;20400;-74
2021/06/24 08:07:12;;;;;;;18.15;3.72;;;31.60;58.80;;;;;;5120124;28;20027;-74
2021/06/24 08:09:39;;;;;;;15.68;3.72;;;32.00;59.10;;;;;;5120452;28;20028;-74
2021/06/24 08:12:05;;;;;;;19.05;4.10;;;32.10;59.30;;;;;;5120115;28;20049;-74
2021/06/24 08:14:31;;;;;;;15.30;3.55;;;32.70;58.40;;;;;;5120498;28;20027;-73
2021/06/24 08:16:57;;;;;;;19.95;3.97;;;32.90;57.80;;;;;;5120260;28;20354;-73
2021/06/24 08:19:23;;;;;;;15.05;3.92;;;32.50;57.30;;;;;;5119880;28;20166;-74
2021/06/24 08:21:50;;;;;;;14.77;3.75;;;32.10;59.50;;;;;;5120209;28;20026;-74
2021/06/24 08:24:15;;;;;;;14.40;3.75;;;32.10;56.70;;;;;;5120191;28;20019;-73
2021/06/24 08:26:41;;;;;;;22.45;4.68;;;32.20;58.30;;;;;;5120073;28;20027;-74
2021/06/24 08:29:07;;;;;;;14.07;4.00;;;32.00;57.50;;;;;;5120047;28;20316;-73
2021/06/24 08:31:33;;;;;;;14.77;3.80;;;32.40;58.80;;;;;;5119996;28;20031;-74
2021/06/24 08:33:59;;;;;;;16.20;3.60;;;31.90;59.50;;;;;;5119740;28;20027;-74
2021/06/24 08:36:25;;;;;;;18.67;4.13;;;31.60;60.40;;;;;;5119474;28;20047;-74
2021/06/24 08:38:51;;;;;;;13.18;3.22;;;31.30;60.30;;;;;;5119865;28;20031;-73
2021/06/24 08:41:18;;;;;;;12.13;3.40;;;31.20;60.90;;;;;;5119740;28;20027;-73
2021/06/24 08:43:43;;;;;;;15.75;3.40;;;31.10;61.40;;;;;;5119740;28;20068;-74
2021/06/24 08:46:10;;;;;;;14.60;3.55;;;31.30;60.20;;;;;;5119670;28;20027;-74
2021/06/24 08:48:38;;;;;;;13.93;3.30;;;31.50;60.80;;;;;;5119055;28;20016;-74
2021/06/24 08:51:05;;;;;;;21.40;4.13;;;32.00;58.90;;;;;;5119146;28;20028;-74
2021/06/24 08:53:32;;;;;;;15.95;3.83;;;32.10;58.60;;;;;;5101253;28;20115;-74
2021/06/24 08:55:59;;;;;;;14.85;3.90;;;32.00;58.50;;;;;;5119540;28;20026;-74
2021/06/24 08:58:25;;;;;;;18.38;3.58;;;32.30;59.30;;;;;;5119182;28;20425;-74
2021/06/24 09:00:52;;;;;;;13.82;4.10;;;32.70;55.80;;;;;;5119056;28;20028;-73
2021/06/24 09:03:23;;;;;;;14.55;3.15;;;32.90;56.40;;;;;;5119385;28;20023;-74
2021/06/24 09:06:03;;;;;;;19.00;3.80;;;33.00;57.00;;;;;;5119334;28;20028;-74
2021/06/24 09:08:38;;;;;;;18.80;3.60;;;32.40;56.60;;;;;;5119017;28;20427;-73
2021/06/24 09:11:22;;;;;;;14.88;3.10;;;32.20;59.50;;;;;;5119276;28;20039;-74
2021/06/24 09:14:11;;;;;;;16.50;3.85;;;32.70;59.90;;;;;;5119310;28;20107;-73
2021/06/24 09:16:40;;;;;;;15.98;3.53;;;33.00;55.50;;;;;;5118782;28;20103;-74
2021/06/24 09:19:26;;;;;;;12.63;3.13;;;33.20;55.80;;;;;;5119044;28;20024;-74
2021/06/24 09:22:04;;;;;;;17.73;3.55;;;33.30;58.50;;;;;;5118775;28;20023;-73
2021/06/24 09:24:47;;;;;;;16.10;3.30;;;33.10;56.80;;;;;;5119000;28;20341;-74
2021/06/24 09:27:19;;;;;;;17.02;3.78;;;33.60;56.40;;;;;;5118510;28;20320;-74
2021/06/24 09:29:52;;;;;;;12.80;3.60;;;34.00;53.70;;;;;;5118910;28;20327;-74
2021/06/24 09:32:34;;;;;;;14.57;3.70;;;34.60;53.70;;;;;;5118799;28;20050;-74
2021/06/24 09:35:02;;;;;;;17.63;3.67;;;35.10;52.60;;;;;;5118514;28;20040;-74
2021/06/24 09:37:28;;;;;;;18.38;3.83;;;35.60;52.30;;;;;;5118452;28;20035;-74
2021/06/24 09:39:55;;;;;;;13.00;3.85;;;35.70;51.20;;;;;;5118286;28;20085;-74
2021/06/24 09:42:22;;;;;;;14.15;3.63;;;35.20;52.40;;;;;;5118597;28;20094;-74
2021/06/24 09:44:48;;;;;;;12.77;3.45;;;34.40;55.00;;;;;;5118809;28;20080;-74
2021/06/24 09:47:25;;;;;;;12.70;3.20;;;33.50;55.70;;;;;;5118211;28;20019;-74
2021/06/24 09:50:00;;;;;;;15.80;3.40;;;32.90;53.70;;;;;;5118229;28;20062;-74
2021/06/24 09:52:27;;;;;;;23.60;4.78;;;32.60;56.60;;;;;;5118081;28;20019;-74
2021/06/24 09:55:04;;;;;;;11.25;3.47;;;32.90;55.60;;;;;;5118375;28;20030;-74
2021/06/24 09:57:30;;;;;;;18.83;3.47;;;32.90;57.90;;;;;;5118014;28;20028;-74
2021/06/24 09:59:56;;;;;;;16.27;3.70;;;33.40;56.20;;;;;;5117012;28;20083;-74
2021/06/24 10:02:22;;;;;;;18.55;4.60;;;34.10;56.20;;;;;;5118227;28;20027;-74
2021/06/24 10:04:48;;;;;;;16.30;4.50;;;34.60;54.10;;;;;;5117992;28;20032;-74
2021/06/24 10:07:16;;;;;;;18.00;4.05;;;34.40;54.30;;;;;;5117897;28;20315;-74
2021/06/24 10:09:44;;;;;;;21.52;3.72;;;34.30;55.40;;;;;;5117826;28;20035;-74
2021/06/24 10:12:20;;;;;;;14.02;3.17;;;34.40;53.60;;;;;;5118069;28;20342;-74
2021/06/24 10:14:47;;;;;;;14.05;3.20;;;34.50;53.50;;;;;;5118254;28;20041;-74
2021/06/24 10:17:13;;;;;;;18.65;3.85;;;34.90;55.60;;;;;;5116611;28;20020;-73
2021/06/24 10:19:43;;;;;;;15.63;3.67;;;35.20;54.50;;;;;;5125369;27;20378;-74
2021/06/24 10:22:15;;;;;;;15.65;4.05;;;35.60;48.90;;;;;;5138462;27;20041;-74
2021/06/24 10:25:07;;;;;;;12.95;3.75;;;35.50;48.00;;;;;;5138491;27;20076;-74
2021/06/24 10:27:37;;;;;;;17.15;4.10;;;35.30;52.20;;;;;;5138100;27;20015;-74
2021/06/24 10:30:18;;;;;;;13.95;4.25;;;35.40;51.60;;;;;;5138362;27;20052;-74
2021/06/24 10:33:07;;;;;;;20.92;5.00;;;35.50;50.30;;;;;;5137938;27;20073;-74
2021/06/24 10:35:36;;;;;;;15.30;3.38;;;35.30;49.80;;;;;;5137723;27;20071;-74
2021/06/24 10:38:03;;;;;;;18.20;3.92;;;35.20;51.90;;;;;;5138222;27;20031;-74
2021/06/24 10:40:34;;;;;;;15.30;4.63;;;35.20;50.80;;;;;;5138115;27;20062;-74
2021/06/24 10:43:16;;;;;;;17.90;4.47;;;35.30;53.50;;;;;;5137754;27;20495;-74
2021/06/24 10:45:43;;;;;;;15.27;3.95;;;35.40;52.10;;;;;;5138088;27;20023;-74
2021/06/24 10:48:32;;;;;;;17.75;3.88;;;35.60;54.30;;;;;;5138043;27;20068;-73
2021/06/24 10:51:11;;;;;;;17.63;3.78;;;35.60;52.30;;;;;;5137982;27;20441;-73
2021/06/24 10:53:48;;;;;;;17.50;4.60;;;35.50;51.10;;;;;;5138064;27;20023;-74
2021/06/24 10:56:43;;;;;;;13.65;3.58;;;35.50;56.20;;;;;;5137972;27;20023;-74
2021/06/24 10:59:23;;;;;;;16.98;3.50;;;35.70;54.80;;;;;;5138005;28;20026;-74
2021/06/24 11:01:49;;;;;;;14.02;3.75;;;35.80;53.80;;;;;;5137954;28;20080;-74
2021/06/24 11:04:33;;;;;;;13.93;3.58;;;35.80;52.20;;;;;;5137641;28;20423;-74
2021/06/24 11:07:14;;;;;;;12.00;4.00;;;35.80;50.90;;;;;;5137993;28;20027;-74
2021/06/24 11:09:40;;;;;;;15.88;3.60;;;35.70;53.50;;;;;;5137953;28;20070;-74
2021/06/24 11:12:05;;;;;;;21.88;3.92;;;35.80;54.40;;;;;;5140758;27;20023;-73
2021/06/24 11:14:54;;;;;;;16.58;3.83;;;35.70;51.40;;;;;;5142248;27;20043;-74
2021/06/24 11:17:46;;;;;;;13.90;3.67;;;35.40;52.40;;;;;;5141974;27;20035;-73
2021/06/24 11:20:17;;;;;;;16.23;3.80;;;35.20;56.50;;;;;;5141913;27;20080;-74
2021/06/24 11:22:51;;;;;;;17.30;3.63;;;35.30;52.60;;;;;;5141908;27;20019;-74
2021/06/24 11:25:17;;;;;;;15.73;3.80;;;35.00;53.00;;;;;;5141575;27;20023;-74
2021/06/24 11:27:43;;;;;;;15.15;4.13;;;34.50;54.00;;;;;;5141479;27;20071;-74
2021/06/24 11:30:11;;;;;;;13.02;3.42;;;33.60;52.80;;;;;;5141801;27;20102;-74
2021/06/24 11:32:39;;;;;;;22.27;4.70;;;32.90;56.40;;;;;;5141733;27;20035;-74
2021/06/24 11:35:31;;;;;;;17.63;3.80;;;32.60;56.90;;;;;;5141181;27;20036;-74
2021/06/24 11:38:01;;;;;;;20.52;3.80;;;32.90;57.90;;;;;;5141351;27;20114;-74
2021/06/24 11:40:28;;;;;;;19.45;4.25;;;33.30;55.50;;;;;;5141194;27;20034;-74
2021/06/24 11:42:53;;;;;;;21.35;3.78;;;33.50;57.50;;;;;;5141246;27;20027;-74
2021/06/24 11:45:22;;;;;;;14.82;3.70;;;33.70;55.00;;;;;;5141497;27;20031;-74
2021/06/24 11:47:47;;;;;;;14.48;4.78;;;33.80;58.60;;;;;;5141384;27;20034;-74
2021/06/24 12:04:21;;;;;;;13.85;4.32;;;33.00;59.30;;;;;;5141359;27;20035;-74
2021/06/24 12:07:07;;;;;;;22.83;4.55;;;32.50;59.60;;;;;;5140784;27;20019;-74
2021/06/24 12:09:50;;;;;;;16.90;4.43;;;32.00;59.80;;;;;;5141060;27;20031;-74
2021/06/24 12:12:18;;;;;;;18.63;4.93;;;31.70;60.50;;;;;;5140996;27;20046;-74
2021/06/24 12:14:45;;;;;;;18.23;3.83;;;31.60;60.90;;;;;;5141158;27;20042;-74
2021/06/24 12:17:11;;;;;;;12.95;4.22;;;31.40;63.00;;;;;;5140846;27;20031;-74
2021/06/24 12:19:43;;;;;;;21.33;4.00;;;31.00;61.70;;;;;;5140438;27;20095;-73
2021/06/24 12:22:09;;;;;;;21.50;5.35;;;30.70;64.70;;;;;;5139929;27;20024;-73
2021/06/24 12:24:35;;;;;;;18.63;4.32;;;30.30;62.90;;;;;;5140034;27;20099;-74
2021/06/24 12:27:20;;;;;;;15.40;4.60;;;29.90;64.00;;;;;;5140333;27;20031;-74
2021/06/24 12:29:47;;;;;;;15.95;4.63;;;29.70;65.70;;;;;;5140709;27;20361;-74
2021/06/24 12:32:15;;;;;;;18.48;4.70;;;29.70;67.00;;;;;;5140209;27;20023;-74
2021/06/24 12:34:41;;;;;;;15.15;4.50;;;29.70;64.70;;;;;;5140175;27;20034;-75
2021/06/24 12:37:07;;;;;;;15.57;4.43;;;29.90;68.40;;;;;;5140522;27;20023;-74
2021/06/24 12:39:33;;;;;;;13.57;4.28;;;30.00;64.70;;;;;;5140089;27;20434;-74
2021/06/24 12:42:02;;;;;;;16.80;4.40;;;30.40;66.00;;;;;;5140441;27;20023;-73
2021/06/24 12:44:28;;;;;;;19.30;4.35;;;30.70;66.30;;;;;;5140502;27;20395;-74
2021/06/24 12:46:53;;;;;;;19.60;5.57;;;30.50;61.40;;;;;;5139590;27;20040;-74
2021/06/24 12:49:19;;;;;;;12.15;4.10;;;30.40;62.10;;;;;;5140289;27;20022;-73
2021/06/24 12:51:46;;;;;;;13.05;4.05;;;30.40;64.30;;;;;;5140211;27;20077;-74
2021/06/24 12:54:15;;;;;;;21.58;5.25;;;30.60;65.40;;;;;;5139942;27;20042;-74